Time;durP1;ratioP1;P1;durP2;ratioP2;P2;SDS_P1;SDS_P2;PMS_P1;PMS_P2;Temp;Humidity;BMP_temperature;BMP_pressure;BME280_temperature;BME280_humidity;BME280_pressure;Samples;Min_cycle;Max_cycle;Signal;HPM_P1;HPM_P2
2021/12/06 00:01:31;;;;;;;66.68;31.98;;;;;;;8.25;79.74;98968.78;3074350;28;20146;-68
2021/12/06 00:03:06;;;;;;;73.78;32.55;;;;;;;8.22;80.01;98961.16;3076097;28;20058;-68
2021/12/06 00:04:39;;;;;;;65.03;29.58;;;;;;;8.28;80.07;98971.25;3075164;28;20775;-67
2021/12/06 00:06:12;;;;;;;72.70;31.33;;;;;;;8.29;80.33;98970.31;3073113;28;20061;-68
2021/12/06 00:07:44;;;;;;;60.97;31.10;;;;;;;8.27;79.81;98972.16;3076933;28;20162;-68
2021/12/06 00:09:19;;;;;;;58.67;29.10;;;;;;;8.23;80.41;98988.78;3073689;28;20054;-69
2021/12/06 00:10:52;;;;;;;68.97;31.20;;;;;;;8.17;80.43;98987.31;3077227;28;20058;-67
2021/12/06 00:12:24;;;;;;;60.05;30.10;;;;;;;8.24;80.15;98997.41;3074253;28;20055;-69
2021/12/06 00:13:57;;;;;;;67.45;30.33;;;;;;;8.27;80.29;98985.13;3075803;28;20086;-69
2021/12/06 00:15:32;;;;;;;69.85;30.67;;;;;;;8.24;80.55;98982.66;3075099;28;20050;-70
2021/12/06 00:17:07;;;;;;;64.43;29.35;;;;;;;8.20;80.45;98974.22;3072932;28;20466;-70
2021/12/06 00:18:40;;;;;;;67.15;31.88;;;;;;;8.25;80.23;98976.56;3075964;28;20551;-70
2021/12/06 00:20:15;;;;;;;67.95;30.40;;;;;;;8.25;80.51;98980.91;3065895;28;20054;-69
2021/12/06 00:21:47;;;;;;;71.80;30.88;;;;;;;8.18;80.42;98970.00;3073652;28;20350;-69
2021/12/06 00:23:19;;;;;;;64.38;30.55;;;;;;;8.28;80.34;98984.22;3073665;28;20050;-69
2021/12/06 00:24:51;;;;;;;67.47;30.10;;;;;;;8.30;80.35;98986.72;3070769;28;20054;-69
2021/12/06 00:26:24;;;;;;;65.05;30.33;;;;;;;8.30;80.40;98982.38;3075898;28;20149;-70
2021/12/06 00:27:56;;;;;;;69.78;31.05;;;;;;;8.32;80.45;98990.09;3072029;28;20575;-69
2021/12/06 00:29:28;;;;;;;62.88;29.20;;;;;;;8.32;80.17;98992.69;3075188;28;20537;-69
2021/12/06 00:31:00;;;;;;;63.53;30.25;;;;;;;8.34;80.28;99007.25;3074106;28;20424;-69
2021/12/06 00:32:34;;;;;;;69.22;30.88;;;;;;;8.35;80.57;99006.34;3075096;28;20622;-70
2021/12/06 00:34:13;;;;;;;67.80;29.90;;;;;;;8.35;80.29;99005.50;3074421;28;20345;-69
2021/12/06 00:35:45;;;;;;;71.82;31.77;;;;;;;8.33;80.64;99005.56;3070991;28;20055;-70
2021/12/06 00:37:20;;;;;;;71.07;30.73;;;;;;;8.37;80.41;99001.94;3074984;28;20051;-70
2021/12/06 00:38:52;;;;;;;73.07;32.00;;;;;;;8.34;80.34;98996.03;3073020;28;20070;-70
2021/12/06 00:40:27;;;;;;;73.22;32.40;;;;;;;8.34;80.71;98989.09;3073935;28;20403;-70
2021/12/06 00:41:59;;;;;;;69.65;30.83;;;;;;;8.35;80.22;98985.59;3078336;28;20141;-69
2021/12/06 00:43:31;;;;;;;69.45;30.45;;;;;;;8.40;80.50;98990.56;3072425;28;20655;-70
2021/12/06 00:45:05;;;;;;;67.80;31.97;;;;;;;8.29;80.48;98980.69;3073920;28;20106;-70
2021/12/06 00:46:39;;;;;;;66.65;31.45;;;;;;;8.37;80.36;98986.38;3073181;28;20345;-70
2021/12/06 00:48:13;;;;;;;64.65;30.38;;;;;;;8.38;80.17;98989.78;3074586;28;20607;-70
2021/12/06 00:49:46;;;;;;;70.00;32.30;;;;;;;8.33;80.55;98986.56;3073157;28;20050;-70
2021/12/06 00:51:19;;;;;;;70.00;32.70;;;;;;;8.35;80.38;98993.38;3078064;28;20058;-67
2021/12/06 00:52:52;;;;;;;72.28;31.08;;;;;;;8.34;80.48;98989.09;3072630;28;20827;-68
2021/12/06 00:54:24;;;;;;;70.32;31.58;;;;;;;8.34;80.57;98983.91;3073847;28;20051;-68
2021/12/06 00:55:56;;;;;;;72.70;32.03;;;;;;;8.38;80.38;98979.41;3075791;28;20125;-68
2021/12/06 00:57:28;;;;;;;73.18;31.98;;;;;;;8.37;80.16;98972.53;3066980;28;20223;-70
2021/12/06 00:59:00;;;;;;;70.93;30.88;;;;;;;8.39;80.21;98981.94;3071793;28;20055;-69
2021/12/06 01:00:36;;;;;;;75.32;31.55;;;;;;;8.41;80.47;98990.50;3073208;28;20299;-68
2021/12/06 01:02:10;;;;;;;71.28;31.30;;;;;;;8.35;80.73;98979.56;3072306;28;20057;-68
2021/12/06 01:03:44;;;;;;;67.75;31.35;;;;;;;8.41;80.58;98982.72;3075630;28;20074;-68
2021/12/06 01:05:18;;;;;;;72.22;30.70;;;;;;;8.40;80.37;98973.28;3073027;28;20058;-67
2021/12/06 01:06:50;;;;;;;73.80;31.33;;;;;;;8.38;80.66;98961.25;3075331;28;20437;-68
2021/12/06 01:08:22;;;;;;;68.50;30.70;;;;;;;8.30;80.98;98948.66;3073745;28;20647;-68
2021/12/06 01:09:54;;;;;;;72.85;31.67;;;;;;;8.17;81.15;98934.63;3074503;28;20085;-69
2021/12/06 01:11:25;;;;;;;72.60;31.52;;;;;;;8.28;81.13;98950.50;3073268;28;20055;-68
2021/12/06 01:12:57;;;;;;;73.28;32.03;;;;;;;8.27;81.24;98946.22;3072121;28;20061;-68
2021/12/06 01:14:29;;;;;;;67.10;31.95;;;;;;;8.30;81.25;98947.81;3075073;28;20054;-69
2021/12/06 01:16:02;;;;;;;73.60;31.05;;;;;;;8.31;81.09;98950.34;3077029;28;20058;-69
2021/12/06 01:17:34;;;;;;;74.50;32.08;;;;;;;8.35;80.78;98956.22;3083224;28;20047;-68
2021/12/06 01:19:07;;;;;;;80.00;33.47;;;;;;;8.37;80.98;98963.00;3082701;28;20119;-69
2021/12/06 01:20:47;;;;;;;72.38;31.88;;;;;;;8.37;80.85;98956.97;3082076;28;20448;-69
2021/12/06 01:22:27;;;;;;;67.10;28.52;;;;;;;8.34;81.08;98952.78;3083228;28;20579;-68
2021/12/06 01:24:00;;;;;;;70.40;30.10;;;;;;;8.21;81.54;98947.34;3082375;28;20043;-68
2021/12/06 01:25:41;;;;;;;72.10;30.85;;;;;;;8.19;81.71;98943.16;3087477;28;20050;-68
2021/12/06 01:27:31;;;;;;;71.45;31.60;;;;;;;8.19;81.52;98944.00;3082044;28;20070;-68
2021/12/06 01:29:25;;;;;;;69.80;29.95;;;;;;;8.19;81.75;98950.94;3079984;28;20074;-68
2021/12/06 01:31:03;;;;;;;;;;;;;;;7.95;82.16;98950.38;3082602;28;20061;-68
2021/12/06 01:33:04;;;;;;;68.88;28.20;;;;;;;8.04;82.41;98936.94;3082864;28;20076;-68
2021/12/06 01:40:07;;;;;;;68.50;29.73;;;;;;;8.20;81.92;98945.69;3082923;28;20572;-70
2021/12/06 01:41:39;;;;;;;;;;;;;;;7.95;82.62;98943.41;3084558;28;20058;-69
2021/12/06 01:43:11;;;;;;;66.47;28.50;;;;;;;8.02;82.90;98936.22;3082357;28;19926;-70
2021/12/06 01:44:45;;;;;;;70.22;29.35;;;;;;;8.16;82.60;98938.09;3083075;28;20054;-70
2021/12/06 01:46:17;;;;;;;71.57;30.10;;;;;;;8.19;82.24;98932.78;3081542;28;20380;-70
2021/12/06 01:47:52;;;;;;;69.78;31.15;;;;;;;8.16;81.94;98922.53;3083126;28;20236;-70
2021/12/06 01:49:26;;;;;;;72.30;30.55;;;;;;;8.21;81.95;98928.34;3084431;28;20069;-68
2021/12/06 01:50:59;;;;;;;70.10;31.75;;;;;;;8.27;81.80;98930.63;3082764;28;20051;-69
2021/12/06 01:52:35;;;;;;;;;;;;;;;8.07;82.08;98930.78;3076927;28;20051;-69
2021/12/06 01:54:09;;;;;;;70.72;30.00;;;;;;;8.16;82.14;98927.72;3082614;28;19922;-69
2021/12/06 01:55:41;;;;;;;71.50;30.65;;;;;;;8.19;82.21;98918.06;3084045;28;20055;-69
2021/12/06 01:57:14;;;;;;;73.88;31.02;;;;;;;8.13;82.20;98913.19;3080925;28;20070;-69
2021/12/06 01:58:46;;;;;;;71.25;29.48;;;;;;;8.19;82.05;98932.78;3083160;28;20054;-69
2021/12/06 02:00:23;;;;;;;74.80;31.42;;;;;;;8.24;81.96;98929.97;3080982;28;20061;-69
2021/12/06 02:01:56;;;;;;;74.47;31.58;;;;;;;8.28;81.93;98927.16;3081266;28;20047;-69
2021/12/06 02:03:28;;;;;;;67.72;30.35;;;;;;;8.30;81.58;98920.13;3083354;28;20066;-69
2021/12/06 02:05:00;;;;;;;74.93;30.23;;;;;;;8.31;81.72;98921.81;3081404;28;20487;-70
2021/12/06 02:06:34;;;;;;;76.22;30.80;;;;;;;8.29;81.90;98920.22;3077612;28;20054;-70
2021/12/06 02:08:07;;;;;;;76.20;32.83;;;;;;;8.34;81.46;98924.25;3083612;28;20113;-70
2021/12/06 02:09:39;;;;;;;81.70;32.88;;;;;;;8.29;81.73;98913.25;3083036;28;20061;-70
2021/12/06 02:11:12;;;;;;;80.30;31.13;;;;;;;8.36;81.78;98922.41;3087144;28;20051;-70
2021/12/06 02:12:46;;;;;;;74.63;33.40;;;;;;;8.34;81.41;98916.47;3081222;28;20066;-70
2021/12/06 02:16:07;;;;;;;87.20;32.42;;;;;;;8.34;81.78;98913.88;3082056;28;20057;-70
2021/12/06 02:17:43;;;;;;;74.75;30.33;;;;;;;8.26;82.01;98916.00;3083023;28;20057;-70
2021/12/06 02:19:18;;;;;;;83.22;31.73;;;;;;;8.23;82.23;98913.56;3083097;28;20082;-70
2021/12/06 02:21:01;;;;;;;81.88;32.63;;;;;;;8.23;82.14;98918.75;3082946;28;20046;-70
2021/12/06 02:22:36;;;;;;;89.97;32.63;;;;;;;8.22;82.16;98917.06;3083861;28;20050;-70
2021/12/06 02:24:10;;;;;;;87.75;31.75;;;;;;;8.26;82.21;98905.63;3082294;28;20533;-70
2021/12/06 02:25:42;;;;;;;92.43;32.20;;;;;;;8.17;82.26;98891.38;3085308;28;20466;-70
2021/12/06 02:27:15;;;;;;;92.28;31.38;;;;;;;8.14;82.59;98898.47;3081556;28;20059;-70
2021/12/06 02:28:47;;;;;;;92.20;34.65;;;;;;;8.13;82.63;98915.78;3082910;28;20054;-70
2021/12/06 02:30:20;;;;;;;93.32;31.92;;;;;;;8.21;82.44;98925.75;3082443;28;20098;-69
2021/12/06 02:31:52;;;;;;;94.88;33.22;;;;;;;8.20;82.04;98924.94;3081346;28;20476;-69
2021/12/06 02:33:24;;;;;;;94.32;31.80;;;;;;;8.21;82.20;98936.13;3081954;28;20511;-69
2021/12/06 02:34:58;;;;;;;95.00;32.15;;;;;;;8.18;82.60;98931.94;3081302;28;20054;-69
2021/12/06 02:36:32;;;;;;;94.45;32.95;;;;;;;8.19;82.46;98918.06;3082758;28;20105;-69
2021/12/06 02:38:07;;;;;;;107.57;33.10;;;;;;;8.20;82.50;98903.34;3083257;28;20045;-69
2021/12/06 02:39:39;;;;;;;90.65;31.33;;;;;;;8.02;82.26;98862.78;3081462;28;20061;-69
2021/12/06 02:41:12;;;;;;;98.25;30.63;;;;;;;7.86;83.17;98847.94;3083136;28;20110;-70
2021/12/06 02:42:46;;;;;;;100.20;31.77;;;;;;;8.01;83.46;98889.59;3080690;28;20046;-70
2021/12/06 02:44:18;;;;;;;102.47;30.98;;;;;;;8.03;83.07;98905.94;3082809;28;21090;-70
2021/12/06 02:45:50;;;;;;;106.43;31.60;;;;;;;8.06;82.90;98905.78;3083387;28;20054;-70
2021/12/06 02:47:22;;;;;;;102.43;31.13;;;;;;;8.06;82.93;98900.59;3082869;28;20047;-70
2021/12/06 02:48:54;;;;;;;101.47;30.77;;;;;;;8.12;82.73;98914.09;3081466;28;20145;-70
2021/12/06 02:50:29;;;;;;;106.50;31.40;;;;;;;8.12;82.86;98905.47;3080124;28;20097;-70
2021/12/06 02:52:04;;;;;;;92.30;30.42;;;;;;;8.15;82.90;98900.13;3082698;28;20081;-70
2021/12/06 02:53:38;;;;;;;87.10;29.42;;;;;;;8.13;82.92;98896.78;3082930;28;20088;-68
2021/12/06 02:55:28;;;;;;;83.20;28.08;;;;;;;8.09;82.84;98900.44;3082718;28;20431;-68
2021/12/06 02:57:19;;;;;;;84.85;28.88;;;;;;;8.11;82.70;98909.81;3081820;28;20059;-68
2021/12/06 02:58:58;;;;;;;98.57;30.33;;;;;;;8.15;82.63;98910.50;3082432;28;20496;-68
2021/12/06 03:00:30;;;;;;;90.60;27.70;;;;;;;8.14;82.92;98903.66;3083536;28;20142;-67
2021/12/06 03:02:06;;;;;;;98.32;30.58;;;;;;;8.18;82.63;98900.81;3077875;28;20054;-69
2021/12/06 03:03:39;;;;;;;94.03;29.50;;;;;;;8.18;82.80;98881.81;3073879;28;20060;-68
2021/12/06 03:05:11;;;;;;;95.45;28.50;;;;;;;8.00;82.45;98860.25;3074802;28;20417;-69
2021/12/06 03:06:44;;;;;;;92.97;29.05;;;;;;;8.00;82.54;98860.25;3075674;28;20055;-69
2021/12/06 03:08:34;;;;;;;101.05;29.55;;;;;;;8.17;82.14;98895.72;3074744;28;20157;-69
2021/12/06 03:10:09;;;;;;;95.03;28.83;;;;;;;8.12;82.80;98893.34;3076750;28;20706;-69
2021/12/06 03:11:45;;;;;;;86.75;28.15;;;;;;;8.16;82.82;98914.75;3079454;28;20118;-68
2021/12/06 03:13:17;;;;;;;93.13;29.27;;;;;;;8.18;82.21;98915.53;3074984;28;20054;-69
2021/12/06 03:14:52;;;;;;;89.88;28.55;;;;;;;8.20;82.14;98909.38;3075101;28;20487;-69
2021/12/06 03:16:24;;;;;;;88.28;29.58;;;;;;;8.14;82.41;98896.72;3073625;28;20054;-68
2021/12/06 03:17:57;;;;;;;89.70;29.17;;;;;;;8.17;82.30;98919.06;3079225;28;20208;-69
2021/12/06 03:19:29;;;;;;;96.65;29.20;;;;;;;8.01;82.23;98887.84;3085337;28;20318;-69
2021/12/06 03:21:01;;;;;;;93.30;30.33;;;;;;;8.21;82.15;98924.00;3083854;28;20283;-69
2021/12/06 03:22:33;;;;;;;93.57;29.80;;;;;;;8.24;82.16;98919.59;3078944;28;20068;-69
2021/12/06 03:24:07;;;;;;;85.75;29.08;;;;;;;8.14;82.21;98903.66;3075204;28;20286;-69
2021/12/06 03:25:38;;;;;;;84.25;29.40;;;;;;;8.27;82.25;98919.44;3079891;28;20047;-69
2021/12/06 03:27:11;;;;;;;91.88;28.00;;;;;;;8.27;82.24;98907.28;3076270;28;20225;-69
2021/12/06 03:28:45;;;;;;;93.03;30.13;;;;;;;8.26;82.09;98904.81;3074090;28;20943;-69
2021/12/06 03:30:18;;;;;;;93.57;30.98;;;;;;;8.29;81.78;98900.28;3075669;28;20093;-69
2021/12/06 03:31:50;;;;;;;88.18;31.05;;;;;;;8.29;81.80;98891.66;3074944;28;20591;-68
2021/12/06 03:33:22;;;;;;;91.50;30.58;;;;;;;8.28;82.06;98888.25;3075002;28;20747;-69
2021/12/06 03:34:54;;;;;;;92.78;30.23;;;;;;;8.29;82.07;98889.91;3075723;28;20587;-69
2021/12/06 03:36:30;;;;;;;87.13;30.25;;;;;;;8.27;82.20;98889.13;3074749;28;20800;-69
2021/12/06 03:38:02;;;;;;;84.55;28.40;;;;;;;8.19;81.87;98896.47;3074202;28;20057;-69
2021/12/06 03:39:39;;;;;;;96.72;31.50;;;;;;;8.28;81.73;98897.75;3074807;28;20116;-68
2021/12/06 03:41:14;;;;;;;95.55;31.20;;;;;;;8.30;81.70;98894.19;3077026;28;20180;-67
2021/12/06 03:42:47;;;;;;;92.30;29.77;;;;;;;8.30;81.61;98881.22;3074347;28;20149;-69
2021/12/06 03:44:20;;;;;;;86.15;29.95;;;;;;;8.31;81.73;98875.13;3073858;28;20448;-68
2021/12/06 03:45:52;;;;;;;93.55;31.20;;;;;;;8.31;81.57;98889.81;3074820;28;20590;-68
2021/12/06 03:47:28;;;;;;;85.88;28.95;;;;;;;8.31;81.55;98898.47;3073768;28;20133;-68
2021/12/06 03:49:00;;;;;;;83.90;28.77;;;;;;;7.95;81.47;98860.47;3074641;28;20051;-68
2021/12/06 03:50:32;;;;;;;93.70;29.80;;;;;;;8.29;81.71;98920.22;3075112;28;20050;-68
2021/12/06 03:52:06;;;;;;;89.93;28.13;;;;;;;7.93;81.59;98857.13;3075488;28;20059;-69
2021/12/06 03:53:37;;;;;;;;;;;;;;;8.10;81.62;98922.84;3073997;28;20046;-69
2021/12/06 03:55:12;;;;;;;78.78;28.08;;;;;;;8.20;82.06;98924.09;3073461;28;20513;-68
2021/12/06 03:56:45;;;;;;;83.63;28.52;;;;;;;8.23;81.92;98910.97;3080326;28;20191;-67
2021/12/06 03:58:17;;;;;;;88.55;29.27;;;;;;;8.28;81.66;98905.53;3072616;28;20058;-69
2021/12/06 03:59:52;;;;;;;73.65;27.08;;;;;;;8.30;81.30;98901.97;3074976;28;20125;-68
2021/12/06 04:01:24;;;;;;;79.63;27.42;;;;;;;8.30;81.07;98899.34;3074584;28;20046;-68
2021/12/06 04:02:57;;;;;;;54.78;21.95;;;;;;;8.28;80.91;98901.22;3073325;28;20695;-67
2021/12/06 04:04:29;;;;;;;57.72;21.40;;;;;;;8.30;80.54;98903.72;3074920;28;20050;-68
2021/12/06 04:06:01;;;;;;;49.88;20.95;;;;;;;8.30;80.30;98901.97;3071558;28;20050;-68
2021/12/06 04:07:33;;;;;;;51.80;21.93;;;;;;;8.29;80.13;98902.06;3075403;28;20063;-68
2021/12/06 04:09:07;;;;;;;49.83;20.25;;;;;;;8.23;80.24;98890.22;3073389;28;20310;-68
2021/12/06 04:10:42;;;;;;;;;;;;;;;8.09;80.36;98910.81;3072226;28;20334;-68
2021/12/06 04:12:14;;;;;;;53.67;19.85;;;;;;;8.14;80.29;98914.84;3073912;28;20585;-70
2021/12/06 04:13:47;;;;;;;56.58;20.40;;;;;;;8.16;80.04;98912.16;3073097;28;20261;-68
2021/12/06 04:15:19;;;;;;;50.47;20.48;;;;;;;8.25;79.89;98903.94;3072764;28;20051;-67
2021/12/06 04:16:51;;;;;;;55.00;21.40;;;;;;;7.99;79.78;98850.81;3073616;28;20058;-67
2021/12/06 04:18:23;;;;;;;59.78;23.55;;;;;;;8.25;79.55;98890.97;3074408;28;20778;-67
2021/12/06 04:19:56;;;;;;;52.15;21.48;;;;;;;8.24;79.64;98893.66;3072848;28;20089;-68
2021/12/06 04:21:28;;;;;;;57.47;21.70;;;;;;;8.31;79.59;98901.06;3074479;28;20105;-68
2021/12/06 04:23:01;;;;;;;53.50;21.60;;;;;;;8.28;79.08;98877.00;3075163;28;20050;-70
2021/12/06 04:24:33;;;;;;;52.22;21.13;;;;;;;8.33;79.10;98899.22;3072965;28;20396;-67
2021/12/06 04:26:07;;;;;;;62.97;22.65;;;;;;;8.32;78.93;98881.13;3077595;28;20182;-68
2021/12/06 04:27:40;;;;;;;53.10;21.10;;;;;;;8.36;79.01;98891.28;3072236;28;20055;-67
2021/12/06 04:29:12;;;;;;;52.35;21.75;;;;;;;8.34;78.83;98885.34;3074279;28;20051;-69
2021/12/06 04:30:44;;;;;;;49.05;21.13;;;;;;;8.38;79.03;98886.00;3075114;28;20702;-68
2021/12/06 04:32:17;;;;;;;47.92;21.48;;;;;;;8.41;78.74;98885.91;3074149;28;20061;-67
2021/12/06 04:33:49;;;;;;;56.10;21.60;;;;;;;8.39;78.59;98888.56;3074972;28;20524;-67
2021/12/06 04:35:22;;;;;;;48.60;20.38;;;;;;;8.40;78.78;98892.84;3072134;28;20061;-69
2021/12/06 04:36:54;;;;;;;55.08;20.95;;;;;;;8.39;78.76;98892.91;3074900;28;20061;-69
2021/12/06 04:38:26;;;;;;;52.08;20.92;;;;;;;8.39;78.44;98891.16;3075311;28;20651;-69
2021/12/06 04:39:59;;;;;;;48.45;20.23;;;;;;;8.39;78.17;98898.09;3073933;28;20246;-69
2021/12/06 04:41:33;;;;;;;48.63;20.27;;;;;;;8.41;77.96;98899.69;3077918;28;20080;-69
2021/12/06 04:43:05;;;;;;;47.78;18.70;;;;;;;8.39;78.24;98893.75;3074400;28;20062;-69
2021/12/06 04:44:38;;;;;;;47.47;19.15;;;;;;;8.21;78.39;98858.31;3071029;28;20162;-68
2021/12/06 04:46:10;;;;;;;50.63;19.10;;;;;;;8.39;78.10;98885.97;3076275;28;20051;-70
2021/12/06 04:47:42;;;;;;;48.20;20.73;;;;;;;8.42;77.66;98897.94;3073339;28;20881;-71
2021/12/06 04:49:15;;;;;;;43.58;18.70;;;;;;;8.42;77.71;98900.53;3074170;28;20051;-68
2021/12/06 04:50:47;;;;;;;41.13;18.63;;;;;;;8.39;77.99;98901.53;3071422;28;20054;-70
2021/12/06 04:52:20;;;;;;;47.47;17.88;;;;;;;8.44;77.57;98901.31;3074744;28;20058;-70
2021/12/06 04:53:53;;;;;;;48.47;17.80;;;;;;;8.42;77.77;98897.94;3075370;28;20059;-70
2021/12/06 04:55:30;;;;;;;39.45;18.23;;;;;;;8.42;77.56;98906.56;3075371;28;20542;-70
2021/12/06 04:57:08;;;;;;;41.80;20.35;;;;;;;8.41;77.23;98894.50;3075831;28;20054;-69
2021/12/06 04:58:47;;;;;;;43.40;17.58;;;;;;;8.33;77.29;98890.59;3073409;28;20304;-69
2021/12/06 05:00:25;;;;;;;43.50;18.20;;;;;;;8.36;77.38;98901.66;3074315;28;20093;-69
2021/12/06 05:02:07;;;;;;;54.03;18.83;;;;;;;8.36;77.00;98893.88;3073228;28;21022;-69
2021/12/06 05:03:40;;;;;;;45.47;21.00;;;;;;;8.35;77.43;98893.97;3074266;28;20121;-69
2021/12/06 05:05:13;;;;;;;;;;;;;;;7.99;77.49;98897.47;3074442;28;20732;-69
2021/12/06 05:06:48;;;;;;;43.25;19.75;;;;;;;8.11;78.21;98911.59;3073839;28;20481;-69
2021/12/06 05:08:25;;;;;;;44.83;19.73;;;;;;;8.21;77.64;98900.66;3075210;28;20069;-69
2021/12/06 05:09:57;;;;;;;50.42;21.73;;;;;;;8.23;77.82;98895.41;3073166;28;20046;-70
2021/12/06 05:11:30;;;;;;;53.08;21.33;;;;;;;8.23;77.77;98885.03;3076349;28;20054;-69
2021/12/06 05:13:05;;;;;;;49.72;21.80;;;;;;;8.25;77.42;98895.31;3071954;28;20142;-69
2021/12/06 05:14:37;;;;;;;47.25;21.20;;;;;;;8.28;77.49;98897.75;3074272;28;20145;-70
2021/12/06 05:16:10;;;;;;;50.72;22.00;;;;;;;8.28;77.68;98897.75;3073086;28;20078;-69
2021/12/06 05:17:43;;;;;;;48.33;22.17;;;;;;;8.33;77.42;98895.78;3074486;28;20523;-69
2021/12/06 05:19:15;;;;;;;;;;;;;;;8.02;77.95;98896.47;3075164;28;20114;-70
2021/12/06 05:20:47;;;;;;;42.95;19.08;;;;;;;8.13;78.38;98907.13;3073464;28;20347;-70
2021/12/06 05:22:19;;;;;;;50.17;20.80;;;;;;;8.22;78.11;98914.47;3074842;28;20459;-69
2021/12/06 05:23:51;;;;;;;54.97;22.92;;;;;;;8.25;77.94;98922.09;3073421;28;20563;-69
2021/12/06 05:25:25;;;;;;;54.47;23.70;;;;;;;8.32;77.91;98907.91;3068179;29;20048;-70
2021/12/06 05:26:58;;;;;;;52.28;22.55;;;;;;;8.31;77.84;98907.97;3085562;28;20046;-69
2021/12/06 05:28:39;;;;;;;50.80;21.30;;;;;;;8.12;77.71;98882.97;3080760;28;20104;-70
2021/12/06 05:30:15;;;;;;;53.67;22.75;;;;;;;8.15;77.56;98879.38;3083446;28;20105;-70
2021/12/06 05:31:54;;;;;;;48.72;20.58;;;;;;;8.36;77.78;98919.81;3079442;28;20134;-69
2021/12/06 05:33:31;;;;;;;48.30;20.77;;;;;;;8.13;77.87;98866.50;3082001;28;20054;-70
2021/12/06 05:35:07;;;;;;;51.90;23.17;;;;;;;8.38;77.61;98904.19;3082909;28;20043;-69
2021/12/06 05:36:39;;;;;;;51.65;22.42;;;;;;;8.38;77.78;98905.03;3080726;28;20057;-69
2021/12/06 05:38:11;;;;;;;56.05;23.27;;;;;;;8.42;77.48;98908.31;3083997;28;20105;-69
2021/12/06 05:39:44;;;;;;;52.05;23.20;;;;;;;8.43;77.68;98916.03;3083751;28;20039;-70
2021/12/06 05:41:16;;;;;;;55.53;24.70;;;;;;;8.46;77.55;98920.22;3086007;28;20486;-69
2021/12/06 05:42:48;;;;;;;58.15;26.10;;;;;;;8.48;77.51;98933.13;3081985;28;20054;-71
2021/12/06 05:44:21;;;;;;;59.03;27.48;;;;;;;8.50;77.37;98939.06;3081864;28;20491;-69
2021/12/06 05:45:54;;;;;;;63.63;25.45;;;;;;;8.50;77.59;98941.66;3081822;28;20051;-68
2021/12/06 05:47:26;;;;;;;60.45;24.55;;;;;;;8.50;77.70;98937.31;3082151;28;20134;-68
2021/12/06 05:48:58;;;;;;;53.72;22.38;;;;;;;8.52;77.71;98925.13;3084398;28;20125;-69
2021/12/06 05:50:29;;;;;;;54.80;23.50;;;;;;;8.56;77.48;98921.44;3080249;28;20105;-69
2021/12/06 05:52:02;;;;;;;55.88;25.38;;;;;;;8.57;77.57;98920.50;3082972;28;20063;-68
2021/12/06 05:53:34;;;;;;;58.28;25.63;;;;;;;8.60;77.34;98922.94;3081524;28;20123;-68
2021/12/06 05:55:09;;;;;;;60.60;27.23;;;;;;;8.60;77.48;98915.16;3080517;28;20527;-67
2021/12/06 05:56:41;;;;;;;55.75;24.63;;;;;;;8.62;77.62;98921.13;3082716;28;20417;-69
2021/12/06 05:58:15;;;;;;;66.85;26.45;;;;;;;8.63;77.44;98920.19;3081516;28;20075;-69
2021/12/06 05:59:48;;;;;;;66.05;28.33;;;;;;;8.49;77.38;98891.53;3083665;28;20054;-69
2021/12/06 06:01:23;;;;;;;50.70;23.77;;;;;;;8.66;77.68;98919.19;3078431;28;20448;-68
2021/12/06 06:02:55;;;;;;;53.65;21.38;;;;;;;8.63;77.45;98916.75;3083022;28;20488;-68
2021/12/06 06:04:27;;;;;;;49.72;20.65;;;;;;;8.71;77.29;98919.81;3081503;28;20073;-70
2021/12/06 06:05:59;;;;;;;50.50;20.77;;;;;;;8.74;77.25;98924.84;3082926;28;20098;-67
2021/12/06 06:07:31;;;;;;;40.80;19.25;;;;;;;8.59;76.78;98897.91;3083767;28;20047;-70
2021/12/06 06:09:07;;;;;;;51.63;19.65;;;;;;;8.74;76.56;98911.03;3080822;28;20077;-67
2021/12/06 06:10:40;;;;;;;41.28;19.35;;;;;;;8.47;76.87;98867.41;3084820;28;20495;-67
2021/12/06 06:12:12;;;;;;;41.33;19.02;;;;;;;8.81;76.63;98923.59;3083028;28;20137;-68
2021/12/06 06:13:43;;;;;;;43.85;19.45;;;;;;;8.80;76.46;98924.53;3082267;28;20110;-65
2021/12/06 06:15:17;;;;;;;52.33;21.50;;;;;;;8.84;76.20;98922.59;3081475;28;20058;-69
2021/12/06 06:16:51;;;;;;;51.30;23.30;;;;;;;8.64;76.47;98895.94;3081342;28;20121;-69
2021/12/06 06:18:23;;;;;;;47.38;20.67;;;;;;;8.85;76.51;98927.72;3082582;28;20055;-67
2021/12/06 06:19:59;;;;;;;44.88;19.77;;;;;;;8.88;76.11;98919.78;3082636;28;20118;-71
2021/12/06 06:21:31;;;;;;;46.33;20.48;;;;;;;8.86;76.21;98919.00;3078523;28;20774;-69
2021/12/06 06:23:04;;;;;;;42.08;19.52;;;;;;;8.94;76.07;98933.38;3081561;28;20051;-71
2021/12/06 06:24:35;;;;;;;45.45;18.83;;;;;;;8.94;75.73;98948.94;3082374;28;20070;-70
2021/12/06 06:26:07;;;;;;;47.03;19.63;;;;;;;8.94;75.84;98946.34;3085253;28;20047;-70
2021/12/06 06:27:39;;;;;;;42.22;18.80;;;;;;;8.99;76.08;98946.94;3079045;28;20058;-71
2021/12/06 06:29:12;;;;;;;41.35;17.67;;;;;;;9.02;75.78;98942.44;3079938;28;20054;-69
2021/12/06 06:30:46;;;;;;;45.00;20.98;;;;;;;9.02;75.77;98944.16;3081279;28;20051;-70
2021/12/06 06:32:17;;;;;;;;;;;;;;;8.80;75.87;98950.47;3080872;28;20051;-69
2021/12/06 06:33:49;;;;;;;57.67;26.95;;;;;;;8.79;76.45;98943.63;3082454;28;19925;-69
2021/12/06 06:35:23;;;;;;;58.33;26.85;;;;;;;8.97;76.09;98960.00;3078982;28;20707;-66
2021/12/06 06:36:55;;;;;;;56.25;26.88;;;;;;;8.95;75.86;98948.84;3082700;28;20046;-67
2021/12/06 06:38:27;;;;;;;62.28;26.63;;;;;;;9.00;75.63;98951.22;3080239;28;20054;-68
2021/12/06 06:39:59;;;;;;;71.57;33.15;;;;;;;9.02;75.66;98937.25;3082715;28;20043;-68
2021/12/06 06:41:31;;;;;;;97.88;41.72;;;;;;;9.05;75.55;98934.47;3083807;28;20046;-68
2021/12/06 06:43:03;;;;;;;56.17;26.40;;;;;;;8.93;75.67;98916.91;3080643;28;20077;-68
2021/12/06 06:44:35;;;;;;;51.77;22.90;;;;;;;9.04;75.66;98935.38;3078740;28;20047;-68
2021/12/06 06:46:09;;;;;;;49.50;21.92;;;;;;;9.07;75.49;98940.41;3082504;28;20137;-70
2021/12/06 06:47:41;;;;;;;48.05;22.08;;;;;;;9.08;75.91;98931.72;3081773;28;20546;-68
2021/12/06 06:49:14;;;;;;;51.28;22.50;;;;;;;9.13;75.44;98928.03;3081946;28;20058;-68
2021/12/06 06:50:46;;;;;;;138.70;61.67;;;;;;;9.17;75.31;98930.41;3080092;28;20106;-68
2021/12/06 06:52:18;;;;;;;62.08;28.98;;;;;;;9.19;75.39;98925.94;3081638;28;20058;-68
2021/12/06 06:53:50;;;;;;;85.63;38.00;;;;;;;9.18;75.14;98920.84;3080101;28;20059;-69
2021/12/06 06:55:23;;;;;;;60.80;26.65;;;;;;;9.09;75.13;98915.22;3085354;28;20058;-68
2021/12/06 06:56:56;;;;;;;48.53;22.27;;;;;;;9.24;75.09;98943.88;3080809;28;20050;-67
2021/12/06 06:58:28;;;;;;;51.50;22.17;;;;;;;9.24;74.89;98942.13;3080811;28;20046;-68
2021/12/06 07:00:00;;;;;;;53.42;23.48;;;;;;;9.25;74.73;98923.00;3082580;28;20046;-67
2021/12/06 07:01:34;;;;;;;55.55;24.13;;;;;;;9.30;74.86;98920.19;3079167;28;20055;-67
2021/12/06 07:03:07;;;;;;;56.97;22.45;;;;;;;9.30;74.54;98926.22;3082047;28;20050;-67
2021/12/06 07:04:39;;;;;;;61.38;22.38;;;;;;;9.28;74.35;98917.66;3080732;28;20090;-68
2021/12/06 07:06:11;;;;;;;61.47;24.27;;;;;;;9.31;74.39;98922.69;3081336;28;20058;-67
2021/12/06 07:07:43;;;;;;;53.33;23.05;;;;;;;9.22;74.56;98905.00;3081525;28;20492;-67
2021/12/06 07:09:15;;;;;;;55.13;23.05;;;;;;;9.33;74.16;98917.41;3079384;28;20050;-68
2021/12/06 07:10:50;;;;;;;53.65;23.17;;;;;;;9.36;74.19;98921.59;3079222;28;20055;-67
2021/12/06 07:12:22;;;;;;;43.75;18.92;;;;;;;9.36;74.40;98927.63;3074658;28;20626;-68
2021/12/06 07:13:54;;;;;;;46.22;21.05;;;;;;;9.36;74.14;98924.22;3072059;28;20094;-67
2021/12/06 07:15:29;;;;;;;47.42;20.45;;;;;;;9.38;73.76;98917.19;3070917;28;20334;-65
2021/12/06 07:17:03;;;;;;;42.75;17.85;;;;;;;9.38;73.61;98909.38;3069190;28;20061;-65
2021/12/06 07:18:36;;;;;;;52.15;19.50;;;;;;;9.33;73.98;98917.41;3072504;28;20577;-65
2021/12/06 07:20:09;;;;;;;48.33;19.23;;;;;;;9.26;73.96;98905.69;3069598;28;20057;-66
2021/12/06 07:21:41;;;;;;;50.25;18.52;;;;;;;9.30;74.17;98908.00;3072886;28;20136;-66
2021/12/06 07:23:13;;;;;;;47.35;18.45;;;;;;;9.32;74.20;98916.56;3070871;28;20507;-66
2021/12/06 07:24:45;;;;;;;54.05;20.08;;;;;;;9.30;74.51;98902.00;3074959;28;20051;-66